Vientiane, Lao Peoples Republic

05:20 PM ICT del 05 Marzo 2015 (GMT +0700)
Ban Nongdouangtai, Vientiane, Lao PDR | Change Station
CLOSE
Current Station
Stazione meteo personale
Location: Vientiane, VIENTIANE PREFECTURE
Altitudine: 577 ft
Stazioni meteo nelle vicinanze

Alt. 577 ft 17.97 °N, 102.60 °E | Updated 4 minutes ago

Partly Cloudy
Parzialmente nuvoloso
95.1 °F
Sembra 97 °F
N
0.0
Vento Variabile Vento da Nord
Gusts 0.0 mph

Oggi
Massima -- | Minima -- °F
--% Possibilità di precip.
Ieri
Massima -- | Minima -- °F
Precip. -- in
6:26 AM 6:16 PM
Luna piena, 100% visible
Pressione 29.74 in
Visibilità 4.3 miglia
Nuvole Alcuni 3000 ft
Indice di calore 97 °F
Punto di rugiada 64 °F
Umidità 36%
Piovosità in
Spessore del manto nevoso Non disponibile.
Raggi UV 2 fuori da 12
Polline Non disponibile.
Qualità dell'aria Non disponibile.
Flu Activity Non disponibile.
METAR VTUD 051000Z 14006KT 7000 FEW030CB 37/17 Q1007 A2975 CB SE INFO L RWY30

More Conditions Fewer Conditions

Pressione 29.74 in
Visibilità 4.3 miglia
Nuvole Alcuni 3000 ft
Indice di calore 97 °F
Punto di rugiada 64 °F
Umidità 36%
Piovosità in
Spessore del manto nevoso Non disponibile.
Raggi UV 2 fuori da 12
Polline Non disponibile.
Qualità dell'aria Non disponibile.
Flu Activity Non disponibile.
METAR VTUD 051000Z 14006KT 7000 FEW030CB 37/17 Q1007 A2975 CB SE INFO L RWY30

More Conditions Fewer Conditions

10-Day Weather Forecast

Almanac

Astronomia

Mar. 05, 2015 Alba Tramonto
Ora attuale
Crepuscolo civile
Crepuscolo nautico
Crepuscolo astronomico
Luna
Estensione della luce visibile
Lunghezza del giorno
Tomorrow will be .
, % of the Moon is Illuminated

Gli estremi di oggi

Massime Regione Minime Regione

Community

WunderPhotos

Upload Photos

1,802,714 foto caricate!

WunderBlogs® & News

Nearby

Qualità dell'aria

  Qualità dell'aria Indice AQ Inquinante
Not available.

Profondità neve

Stazione Profondità Altitudine

Attività sismica

Città  Distanza Mag. Data & Ora
Minimo Magnitudo Mostrato è 2.5.

Temperature delle acque costiere

Località Temperatura

Stazioni meteo nelle vicinanze